Home > Products > Valid Products > TAF

000
FTUS43 KIWX 191100
TAFFWA
TAF
KFWA 191137Z 1912/2012 07012KT P6SM BKN080
     FM191700 09016G24KT P6SM OVC035
     FM192000 11018G25KT 3SM RA BR OVC010
     FM200600 22012KT P6SM OVC020=



000
FTUS43 KIWX 190500
TAFFWA
TAF
KFWA 190523Z 1906/2006 07012KT P6SM BKN080
     FM191700 09016G24KT P6SM OVC035
     FM192000 11018G25KT 3SM RA BR OVC010=



000
FTUS43 KIWX 190200 AAA
TAFFWA
TAF AMD
KFWA 190207Z 1902/1924 08014G20KT P6SM SCT070 BKN250
     FM190500 07012KT P6SM BKN150 WS015/11040KT
     FM191300 09016G24KT P6SM OVC035
     FM191900 11018G25KT 6SM RA OVC010=



000
FTUS43 KIWX 182300 RRA
TAFFWA
TAF
KFWA 182339Z 1900/1924 08013G22KT P6SM SCT070 BKN250
     FM190130 08012KT P6SM SCT070 BKN250
     FM190500 07012KT P6SM BKN150 WS015/11040KT
     FM191300 09016G24KT P6SM OVC035
     FM191900 11018G25KT 6SM RA OVC010=



000
FTUS43 KIWX 181800 CCA
TAFFWA
TAF COR
KFWA 181830Z 1818/1918 06008KT P6SM SCT060 BKN100
     FM190000 07012KT P6SM BKN060
     FM191600 09015KT 5SM -SHRA BR OVC010=



000
FTUS43 KIWX 181800 CCA
TAFFWA
TAF COR
KFWA 181830Z 1818/1918 06008KT P6SM SCT060 BKN100
     FM190000 07012KT P6SM BKN060
     FM191600 09015KT 5SM -SHRA BR OVC010=



000
FTUS43 KIWX 181800 RRA
TAFFWA
TAF
KFWA 181811Z 1818/1918 00000KT P6SM SCT060 BKN100 OVC210
     FM190000 08011KT P6SM BKN060
     FM191600 09015KT 5SM -SHRA BR OVC010=



000
FTUS43 KIWX 181800 RRA
TAFFWA
TAF
KFWA 181811Z 1818/1918 00000KT P6SM SCT060 BKN100 OVC210
     FM190000 08011KT P6SM BKN060
     FM191600 09015KT 5SM -SHRA BR OVC010=



000
FTUS43 KIWX 181350 RRI
TAFFWA

KFWA 181120Z 1812/1912 VRB03KT P6SM SCT080
     FM181500 03006KT P6SM SCT050 BKN250
     FM190000 08011KT P6SM BKN060=



000
FTUS43 KIWX 181350 RRI
TAFFWA

KFWA 181120Z 1812/1912 VRB03KT P6SM SCT080
     FM181500 03006KT P6SM SCT050 BKN250
     FM190000 08011KT P6SM BKN060=



000
FTUS43 KIWX 180500
TAFFWA
TAF
KFWA 180520Z 1806/1906 VRB02KT P6SM SCT080
     FM181500 03006KT P6SM SCT050 BKN250
     FM190000 09011KT P6SM BKN060=



000
FTUS43 KIWX 172300
TAFFWA
TAF
KFWA 172331Z 1800/1824 VRB02KT P6SM SCT250
     FM181500 04006KT P6SM FEW050 SCT250
     FM182300 09010KT P6SM BKN250=



000
FTUS43 KIWX 172300
TAFFWA
TAF
KFWA 172331Z 1800/1824 VRB02KT P6SM SCT250
     FM181500 04006KT P6SM FEW050 SCT250
     FM182300 09010KT P6SM BKN250=



000
FTUS43 KIWX 171700
TAFFWA
TAF
KFWA 171724Z 1718/1818 30007KT P6SM SCT250
     FM180100 VRB03KT P6SM SKC
     FM181500 03007KT P6SM SKC=



000
FTUS43 KIWX 171700
TAFFWA
TAF
KFWA 171724Z 1718/1818 30007KT P6SM SCT250
     FM180100 VRB03KT P6SM SKC
     FM181500 03007KT P6SM SKC=



000
FTUS43 KIWX 171200 CCA
TAFFWA
TAF COR
KFWA 171231Z 1712/1812 00000KT P6SM SKC
     FM171400 28005KT P6SM SKC=



000
FTUS43 KIWX 170500
TAFFWA
TAF
KFWA 170522Z 1706/1806 00000KT 4SM BR SKC
     FM171300 28005KT P6SM SKC=



000
FTUS43 KIWX 170300 AAB
TAFFWA
TAF AMD
KFWA 170344Z 1704/1724 00000KT 3SM BR SKC
     FM171300 30005KT P6SM SKC=



000
FTUS43 KIWX 170100 AAA
TAFFWA
TAF AMD
KFWA 170106Z 1701/1724 24004KT P6SM FEW020 BKN040
     FM170800 00000KT 4SM BR SKC
     FM171300 30005KT P6SM SKC=



000
FTUS43 KIWX 162300
TAFFWA
TAF
KFWA 162334Z 1700/1724 22004KT P6SM OVC025
     FM170800 00000KT 4SM BR SKC
     FM171300 30005KT P6SM SKC=



000
FTUS43 KIWX 162300
TAFFWA
TAF
KFWA 162334Z 1700/1724 22004KT P6SM OVC025
     FM170800 00000KT 4SM BR SKC
     FM171300 30005KT P6SM SKC=



000
FTUS43 KIWX 161700 RRA
TAFFWA
TAF
KFWA 161742Z 1618/1718 VRB03KT 5SM BR OVC015
     FM162200 21006KT 6SM BR BKN020
     FM170800 30004KT P6SM SCT030=



000
FTUS43 KIWX 161600 AAA
TAFFWA
TAF AMD
KFWA 161619Z 1616/1712 20006KT 3SM -RA BR VCSH OVC015
     FM161900 21006KT 6SM BR BKN020
     FM170800 30004KT P6SM SCT030=



    US Dept of Commerce
    National Oceanic and Atmospheric Administration
    National Weather Service
    1325 East West Highway
    Silver Spring, MD 20910
    Page Author: NWS Internet Services Team
Disclaimer
Information Quality
Credits
Glossary
Privacy Policy
Freedom of Information Act (FOIA)
About Us
Career Opportunities